sensor_id;sensor_type;location;lat;lon;timestamp;pressure;altitude;pressure_sealevel;temperature;humidity
8294;BME280;4185;41.506;24.938;2023-01-29T00:01:11;93401.09;;;1.64;100.00
8294;BME280;4185;41.506;24.938;2023-01-29T00:03:39;93405.28;;;1.65;100.00
8294;BME280;4185;41.506;24.938;2023-01-29T00:06:07;93397.25;;;1.65;100.00
8294;BME280;4185;41.506;24.938;2023-01-29T00:08:36;93401.09;;;1.64;100.00
8294;BME280;4185;41.506;24.938;2023-01-29T00:11:04;93398.84;;;1.63;100.00
8294;BME280;4185;41.506;24.938;2023-01-29T00:13:31;93404.03;;;1.57;100.00
8294;BME280;4185;41.506;24.938;2023-01-29T00:15:59;93406.69;;;1.57;100.00
8294;BME280;4185;41.506;24.938;2023-01-29T00:18:26;93400.16;;;1.58;100.00
8294;BME280;4185;41.506;24.938;2023-01-29T00:20:53;93411.50;;;1.62;100.00
8294;BME280;4185;41.506;24.938;2023-01-29T00:23:21;93410.31;;;1.63;100.00
8294;BME280;4185;41.506;24.938;2023-01-29T00:25:49;93416.97;;;1.59;100.00
8294;BME280;4185;41.506;24.938;2023-01-29T00:28:16;93422.00;;;1.57;100.00
8294;BME280;4185;41.506;24.938;2023-01-29T00:30:42;93417.50;;;1.54;100.00
8294;BME280;4185;41.506;24.938;2023-01-29T00:33:09;93412.25;;;1.50;100.00
8294;BME280;4185;41.506;24.938;2023-01-29T00:35:39;93422.09;;;1.53;100.00
8294;BME280;4185;41.506;24.938;2023-01-29T00:38:06;93420.47;;;1.56;100.00
8294;BME280;4185;41.506;24.938;2023-01-29T00:40:36;93417.41;;;1.57;100.00
8294;BME280;4185;41.506;24.938;2023-01-29T00:43:18;93414.28;;;1.59;100.00
8294;BME280;4185;41.506;24.938;2023-01-29T00:46:03;93415.66;;;1.63;100.00
8294;BME280;4185;41.506;24.938;2023-01-29T00:48:31;93417.69;;;1.59;100.00
8294;BME280;4185;41.506;24.938;2023-01-29T00:50:58;93420.69;;;1.61;100.00
8294;BME280;4185;41.506;24.938;2023-01-29T00:53:25;93422.22;;;1.62;100.00
8294;BME280;4185;41.506;24.938;2023-01-29T00:55:52;93415.34;;;1.61;100.00
8294;BME280;4185;41.506;24.938;2023-01-29T00:58:20;93415.66;;;1.63;100.00
8294;BME280;4185;41.506;24.938;2023-01-29T01:00:59;93422.50;;;1.64;100.00
8294;BME280;4185;41.506;24.938;2023-01-29T01:03:27;93412.88;;;1.67;100.00
8294;BME280;4185;41.506;24.938;2023-01-29T01:06:02;93410.22;;;1.67;100.00
8294;BME280;4185;41.506;24.938;2023-01-29T01:08:29;93413.94;;;1.69;100.00
8294;BME280;4185;41.506;24.938;2023-01-29T01:11:13;93413.44;;;1.62;100.00
8294;BME280;4185;41.506;24.938;2023-01-29T01:13:41;93418.34;;;1.63;100.00
8294;BME280;4185;41.506;24.938;2023-01-29T01:16:09;93422.22;;;1.62;100.00
8294;BME280;4185;41.506;24.938;2023-01-29T01:18:36;93425.63;;;1.63;100.00
8294;BME280;4185;41.506;24.938;2023-01-29T01:21:03;93430.25;;;1.62;100.00
8294;BME280;4185;41.506;24.938;2023-01-29T01:23:30;93422.75;;;1.57;100.00
8294;BME280;4185;41.506;24.938;2023-01-29T01:25:57;93426.47;;;1.60;100.00
8294;BME280;4185;41.506;24.938;2023-01-29T01:28:24;93424.56;;;1.60;100.00
8294;BME280;4185;41.506;24.938;2023-01-29T01:30:53;93430.69;;;1.61;100.00
8294;BME280;4185;41.506;24.938;2023-01-29T01:33:19;93421.88;;;1.60;100.00
8294;BME280;4185;41.506;24.938;2023-01-29T01:35:46;93424.56;;;1.60;100.00
8294;BME280;4185;41.506;24.938;2023-01-29T01:38:13;93428.00;;;1.61;100.00
8294;BME280;4185;41.506;24.938;2023-01-29T01:40:43;93429.91;;;1.60;100.00
8294;BME280;4185;41.506;24.938;2023-01-29T01:43:10;93428.09;;;1.57;100.00
8294;BME280;4185;41.506;24.938;2023-01-29T01:45:37;93431.94;;;1.56;100.00
8294;BME280;4185;41.506;24.938;2023-01-29T01:48:08;93435.06;;;1.55;100.00
8294;BME280;4185;41.506;24.938;2023-01-29T01:50:40;93422.22;;;1.50;100.00
8294;BME280;4185;41.506;24.938;2023-01-29T01:53:11;93430.44;;;1.43;100.00
8294;BME280;4185;41.506;24.938;2023-01-29T01:55:42;93433.56;;;1.41;100.00
8294;BME280;4185;41.506;24.938;2023-01-29T01:58:12;93434.94;;;1.46;100.00
8294;BME280;4185;41.506;24.938;2023-01-29T02:00:40;93433.69;;;1.50;100.00
8294;BME280;4185;41.506;24.938;2023-01-29T02:03:09;93433.69;;;1.50;100.00
8294;BME280;4185;41.506;24.938;2023-01-29T02:05:56;93431.00;;;1.50;100.00
8294;BME280;4185;41.506;24.938;2023-01-29T02:08:46;93428.66;;;1.52;100.00
8294;BME280;4185;41.506;24.938;2023-01-29T02:11:32;93423.69;;;1.51;100.00
8294;BME280;4185;41.506;24.938;2023-01-29T02:13:59;93419.84;;;1.52;100.00
8294;BME280;4185;41.506;24.938;2023-01-29T02:16:26;93429.38;;;1.53;100.00
8294;BME280;4185;41.506;24.938;2023-01-29T02:18:54;93425.09;;;1.55;100.00
8294;BME280;4185;41.506;24.938;2023-01-29T02:21:37;93425.22;;;1.52;100.00
8294;BME280;4185;41.506;24.938;2023-01-29T02:24:31;93430.47;;;1.55;100.00
8294;BME280;4185;41.506;24.938;2023-01-29T02:27:09;93424.25;;;1.58;100.00
8294;BME280;4185;41.506;24.938;2023-01-29T02:29:47;93428.72;;;1.61;100.00
8294;BME280;4185;41.506;24.938;2023-01-29T02:32:22;93435.69;;;1.59;100.00
8294;BME280;4185;41.506;24.938;2023-01-29T02:35:02;93434.94;;;1.58;100.00
8294;BME280;4185;41.506;24.938;2023-01-29T02:37:54;93440.84;;;1.53;100.00
8294;BME280;4185;41.506;24.938;2023-01-29T02:40:28;93442.75;;;1.53;100.00
8294;BME280;4185;41.506;24.938;2023-01-29T02:43:01;93447.25;;;1.56;100.00
8294;BME280;4185;41.506;24.938;2023-01-29T02:45:36;93447.69;;;1.54;100.00
8294;BME280;4185;41.506;24.938;2023-01-29T02:48:10;93444.06;;;1.48;100.00
8294;BME280;4185;41.506;24.938;2023-01-29T02:50:42;93447.50;;;1.49;100.00
8294;BME280;4185;41.506;24.938;2023-01-29T02:53:14;93447.16;;;1.47;100.00
8294;BME280;4185;41.506;24.938;2023-01-29T02:55:44;93449.19;;;1.43;100.00
8294;BME280;4185;41.506;24.938;2023-01-29T02:58:18;93450.81;;;1.40;100.00
8294;BME280;4185;41.506;24.938;2023-01-29T03:00:48;93454.53;;;1.43;100.00
8294;BME280;4185;41.506;24.938;2023-01-29T03:03:19;93451.22;;;1.39;100.00
8294;BME280;4185;41.506;24.938;2023-01-29T03:05:51;93453.66;;;1.46;100.00
8294;BME280;4185;41.506;24.938;2023-01-29T03:08:27;93450.69;;;1.44;100.00
8294;BME280;4185;41.506;24.938;2023-01-29T03:11:03;93459.47;;;1.44;100.00
8294;BME280;4185;41.506;24.938;2023-01-29T03:13:35;93455.28;;;1.43;100.00
8294;BME280;4185;41.506;24.938;2023-01-29T03:16:10;93458.06;;;1.40;100.00
8294;BME280;4185;41.506;24.938;2023-01-29T03:18:42;93463.75;;;1.42;100.00
8294;BME280;4185;41.506;24.938;2023-01-29T03:21:15;93466.75;;;1.44;100.00
8294;BME280;4185;41.506;24.938;2023-01-29T03:24:03;93463.75;;;1.42;100.00
8294;BME280;4185;41.506;24.938;2023-01-29T03:26:49;93464.81;;;1.44;100.00
8294;BME280;4185;41.506;24.938;2023-01-29T03:29:35;93462.47;;;1.46;100.00
8294;BME280;4185;41.506;24.938;2023-01-29T03:32:24;93468.69;;;1.43;100.00
8294;BME280;4185;41.506;24.938;2023-01-29T03:34:57;93467.47;;;1.44;100.00
8294;BME280;4185;41.506;24.938;2023-01-29T03:37:28;93475.84;;;1.46;100.00
8294;BME280;4185;41.506;24.938;2023-01-29T03:39:57;93470.50;;;1.46;100.00
8294;BME280;4185;41.506;24.938;2023-01-29T03:42:27;93469.44;;;1.44;100.00
8294;BME280;4185;41.506;24.938;2023-01-29T03:44:59;93472.22;;;1.40;100.00
8294;BME280;4185;41.506;24.938;2023-01-29T03:47:41;93479.06;;;1.41;100.00
8294;BME280;4185;41.506;24.938;2023-01-29T03:50:14;93469.84;;;1.42;100.00
8294;BME280;4185;41.506;24.938;2023-01-29T03:52:48;93471.34;;;1.43;100.00
8294;BME280;4185;41.506;24.938;2023-01-29T03:55:21;93471.34;;;1.43;100.00
8294;BME280;4185;41.506;24.938;2023-01-29T03:57:54;93474.47;;;1.42;100.00
8294;BME280;4185;41.506;24.938;2023-01-29T04:00:27;93478.28;;;1.41;100.00
8294;BME280;4185;41.506;24.938;2023-01-29T04:03:02;93478.72;;;1.39;100.00
8294;BME280;4185;41.506;24.938;2023-01-29T04:05:37;93476.69;;;1.43;100.00
8294;BME280;4185;41.506;24.938;2023-01-29T04:08:10;93482.81;;;1.44;100.00
8294;BME280;4185;41.506;24.938;2023-01-29T04:10:39;93478.19;;;1.44;100.00
8294;BME280;4185;41.506;24.938;2023-01-29T04:13:10;93481.28;;;1.43;100.00
8294;BME280;4185;41.506;24.938;2023-01-29T04:15:41;93481.28;;;1.43;100.00
8294;BME280;4185;41.506;24.938;2023-01-29T04:18:10;93488.69;;;1.39;100.00
8294;BME280;4185;41.506;24.938;2023-01-29T04:20:37;93491.38;;;1.39;100.00
8294;BME280;4185;41.506;24.938;2023-01-29T04:23:05;93489.97;;;1.34;100.00
8294;BME280;4185;41.506;24.938;2023-01-29T04:25:40;93486.94;;;1.32;100.00
8294;BME280;4185;41.506;24.938;2023-01-29T04:28:16;93492.97;;;1.36;100.00
8294;BME280;4185;41.506;24.938;2023-01-29T04:30:48;93486.03;;;1.39;100.00
8294;BME280;4185;41.506;24.938;2023-01-29T04:33:28;93497.44;;;1.39;100.00
8294;BME280;4185;41.506;24.938;2023-01-29T04:36:12;93490.19;;;1.40;100.00
8294;BME280;4185;41.506;24.938;2023-01-29T04:38:49;93491.47;;;1.35;100.00
8294;BME280;4185;41.506;24.938;2023-01-29T04:41:23;93499.16;;;1.33;100.00
8294;BME280;4185;41.506;24.938;2023-01-29T04:44:00;93504.63;;;1.30;100.00
8294;BME280;4185;41.506;24.938;2023-01-29T04:46:33;93506.75;;;1.22;100.00
8294;BME280;4185;41.506;24.938;2023-01-29T04:49:13;93505.44;;;1.14;100.00
8294;BME280;4185;41.506;24.938;2023-01-29T04:51:48;93506.75;;;1.22;100.00
8294;BME280;4185;41.506;24.938;2023-01-29T04:54:24;93521.63;;;1.23;100.00
8294;BME280;4185;41.506;24.938;2023-01-29T04:56:57;93520.97;;;1.19;100.00
8294;BME280;4185;41.506;24.938;2023-01-29T04:59:31;93521.72;;;1.19;100.00
8294;BME280;4185;41.506;24.938;2023-01-29T05:02:00;93523.22;;;1.20;100.00
8294;BME280;4185;41.506;24.938;2023-01-29T05:04:30;93527.06;;;1.19;100.00
8294;BME280;4185;41.506;24.938;2023-01-29T05:07:00;93527.50;;;1.18;100.00
8294;BME280;4185;41.506;24.938;2023-01-29T05:09:28;93530.81;;;1.22;100.00
8294;BME280;4185;41.506;24.938;2023-01-29T05:11:56;93531.56;;;1.22;100.00
8294;BME280;4185;41.506;24.938;2023-01-29T05:14:23;93528.47;;;1.24;100.00
8294;BME280;4185;41.506;24.938;2023-01-29T05:16:54;93529.22;;;1.24;100.00
8294;BME280;4185;41.506;24.938;2023-01-29T05:19:22;93532.97;;;1.27;100.00
8294;BME280;4185;41.506;24.938;2023-01-29T05:21:50;93534.47;;;1.28;100.00
8294;BME280;4185;41.506;24.938;2023-01-29T05:24:19;93544.00;;;1.29;100.00
8294;BME280;4185;41.506;24.938;2023-01-29T05:26:47;93533.28;;;1.29;100.00
8294;BME280;4185;41.506;24.938;2023-01-29T05:29:32;93534.47;;;1.28;100.00
8294;BME280;4185;41.506;24.938;2023-01-29T05:31:59;93530.09;;;1.21;100.00
8294;BME280;4185;41.506;24.938;2023-01-29T05:34:26;93534.59;;;1.24;100.00
8294;BME280;4185;41.506;24.938;2023-01-29T05:36:56;93530.00;;;1.25;100.00
8294;BME280;4185;41.506;24.938;2023-01-29T05:39:22;93539.50;;;1.26;100.00
8294;BME280;4185;41.506;24.938;2023-01-29T05:41:50;93532.97;;;1.27;100.00
8294;BME280;4185;41.506;24.938;2023-01-29T05:44:16;93541.09;;;1.23;100.00
8294;BME280;4185;41.506;24.938;2023-01-29T05:46:44;93543.66;;;1.27;100.00
8294;BME280;4185;41.506;24.938;2023-01-29T05:49:11;93544.31;;;1.31;100.00
8294;BME280;4185;41.506;24.938;2023-01-29T05:51:38;93548.19;;;1.30;100.00
8294;BME280;4185;41.506;24.938;2023-01-29T05:54:06;93554.19;;;1.34;100.00
8294;BME280;4185;41.506;24.938;2023-01-29T05:56:33;93552.16;;;1.38;100.00
8294;BME280;4185;41.506;24.938;2023-01-29T05:59:00;93553.97;;;1.41;100.00
8294;BME280;4185;41.506;24.938;2023-01-29T06:01:26;93560.81;;;1.42;100.00
8294;BME280;4185;41.506;24.938;2023-01-29T06:03:53;93559.66;;;1.43;100.00
8294;BME280;4185;41.506;24.938;2023-01-29T06:06:20;93561.47;;;1.46;100.00
8294;BME280;4185;41.506;24.938;2023-01-29T06:08:47;93560.72;;;1.46;100.00
8294;BME280;4185;41.506;24.938;2023-01-29T06:11:16;93561.81;;;1.48;100.00
8294;BME280;4185;41.506;24.938;2023-01-29T06:13:43;93566.06;;;1.46;100.00
8294;BME280;4185;41.506;24.938;2023-01-29T06:16:11;93563.72;;;1.48;100.00
8294;BME280;4185;41.506;24.938;2023-01-29T06:18:38;93571.66;;;1.51;100.00
8294;BME280;4185;41.506;24.938;2023-01-29T06:21:07;93568.97;;;1.51;100.00
8294;BME280;4185;41.506;24.938;2023-01-29T06:23:34;93570.81;;;1.54;100.00
8294;BME280;4185;41.506;24.938;2023-01-29T06:26:02;93572.75;;;1.54;100.00
8294;BME280;4185;41.506;24.938;2023-01-29T06:28:31;93582.69;;;1.53;100.00
8294;BME280;4185;41.506;24.938;2023-01-29T06:30:58;93582.69;;;1.53;100.00
8294;BME280;4185;41.506;24.938;2023-01-29T06:33:25;93585.38;;;1.53;100.00
8294;BME280;4185;41.506;24.938;2023-01-29T06:35:55;93588.72;;;1.57;100.00
8294;BME280;4185;41.506;24.938;2023-01-29T06:38:23;93591.38;;;1.57;100.00
8294;BME280;4185;41.506;24.938;2023-01-29T06:40:50;93590.09;;;1.62;100.00
8294;BME280;4185;41.506;24.938;2023-01-29T06:43:18;93589.34;;;1.61;100.00
8294;BME280;4185;41.506;24.938;2023-01-29T06:45:53;93591.06;;;1.55;100.00
8294;BME280;4185;41.506;24.938;2023-01-29T06:48:20;93590.31;;;1.67;100.00
8294;BME280;4185;41.506;24.938;2023-01-29T06:50:48;93588.28;;;1.71;100.00
8294;BME280;4185;41.506;24.938;2023-01-29T06:53:15;93603.38;;;1.78;100.00
8294;BME280;4185;41.506;24.938;2023-01-29T06:55:42;93607.91;;;1.81;100.00
8294;BME280;4185;41.506;24.938;2023-01-29T06:58:11;93607.47;;;1.82;99.42
8294;BME280;4185;41.506;24.938;2023-01-29T07:00:38;93615.50;;;1.82;99.59
8294;BME280;4185;41.506;24.938;2023-01-29T07:03:08;93613.16;;;1.84;100.00
8294;BME280;4185;41.506;24.938;2023-01-29T07:05:35;93613.16;;;1.84;99.87
8294;BME280;4185;41.506;24.938;2023-01-29T07:08:02;93614.75;;;1.82;100.00
8294;BME280;4185;41.506;24.938;2023-01-29T07:10:29;93616.91;;;1.87;100.00
8294;BME280;4185;41.506;24.938;2023-01-29T07:12:57;93606.09;;;1.90;99.90
8294;BME280;4185;41.506;24.938;2023-01-29T07:15:25;93614.00;;;1.81;99.36
8294;BME280;4185;41.506;24.938;2023-01-29T07:17:57;93610.78;;;1.86;99.44
8294;BME280;4185;41.506;24.938;2023-01-29T07:20:26;93621.28;;;1.93;99.73
8294;BME280;4185;41.506;24.938;2023-01-29T07:22:53;93620.44;;;1.96;99.23
8294;BME280;4185;41.506;24.938;2023-01-29T07:25:20;93615.22;;;1.93;98.77
8294;BME280;4185;41.506;24.938;2023-01-29T07:27:47;93614.25;;;1.99;99.02
8294;BME280;4185;41.506;24.938;2023-01-29T07:30:15;93618.63;;;2.06;98.07
8294;BME280;4185;41.506;24.938;2023-01-29T07:32:42;93617.56;;;2.16;97.83
8294;BME280;4185;41.506;24.938;2023-01-29T07:35:09;93618.41;;;2.25;97.22
8294;BME280;4185;41.506;24.938;2023-01-29T07:37:37;93622.91;;;2.28;96.44
8294;BME280;4185;41.506;24.938;2023-01-29T07:40:05;93629.25;;;2.34;96.01
8294;BME280;4185;41.506;24.938;2023-01-29T07:42:36;93622.81;;;2.44;96.02
8294;BME280;4185;41.506;24.938;2023-01-29T07:45:04;93628.81;;;2.48;95.42
8294;BME280;4185;41.506;24.938;2023-01-29T07:47:31;93621.94;;;2.47;94.72
8294;BME280;4185;41.506;24.938;2023-01-29T07:49:58;93631.69;;;2.54;94.63
8294;BME280;4185;41.506;24.938;2023-01-29T07:52:25;93634.16;;;2.61;95.04
8294;BME280;4185;41.506;24.938;2023-01-29T07:54:56;93641.03;;;2.62;94.70
8294;BME280;4185;41.506;24.938;2023-01-29T07:57:23;93636.06;;;2.61;94.02
8294;BME280;4185;41.506;24.938;2023-01-29T07:59:50;93640.59;;;2.64;94.03
8294;BME280;4185;41.506;24.938;2023-01-29T08:02:17;93647.56;;;2.61;93.94
8294;BME280;4185;41.506;24.938;2023-01-29T08:04:44;93645.97;;;2.64;94.35
8294;BME280;4185;41.506;24.938;2023-01-29T08:07:10;93654.19;;;2.69;93.91
8294;BME280;4185;41.506;24.938;2023-01-29T08:09:37;93648.72;;;2.73;93.02
8294;BME280;4185;41.506;24.938;2023-01-29T08:12:06;93654.41;;;2.75;93.30
8294;BME280;4185;41.506;24.938;2023-01-29T08:14:32;93644.66;;;2.81;93.18
8294;BME280;4185;41.506;24.938;2023-01-29T08:16:59;93652.53;;;2.97;92.51
8294;BME280;4185;41.506;24.938;2023-01-29T08:19:26;93653.63;;;2.99;91.43
8294;BME280;4185;41.506;24.938;2023-01-29T08:21:53;93647.59;;;3.08;91.64
8294;BME280;4185;41.506;24.938;2023-01-29T08:24:19;93647.88;;;3.22;92.24
8294;BME280;4185;41.506;24.938;2023-01-29T08:26:46;93656.13;;;3.28;91.58
8294;BME280;4185;41.506;24.938;2023-01-29T08:29:14;93649.88;;;3.31;91.19
8294;BME280;4185;41.506;24.938;2023-01-29T08:31:50;93649.75;;;3.34;90.80
8294;BME280;4185;41.506;24.938;2023-01-29T08:34:17;93650.81;;;3.37;89.04
8294;BME280;4185;41.506;24.938;2023-01-29T08:36:44;93650.25;;;3.42;90.01
8294;BME280;4185;41.506;24.938;2023-01-29T08:39:11;93663.00;;;3.50;89.90
8294;BME280;4185;41.506;24.938;2023-01-29T08:41:40;93656.63;;;3.57;89.19
8294;BME280;4185;41.506;24.938;2023-01-29T08:44:10;93664.88;;;3.62;88.41
8294;BME280;4185;41.506;24.938;2023-01-29T08:46:43;93657.50;;;3.75;88.85
8294;BME280;4185;41.506;24.938;2023-01-29T08:49:28;93667.28;;;3.82;87.64
8294;BME280;4185;41.506;24.938;2023-01-29T08:52:02;93661.94;;;3.91;87.80
8294;BME280;4185;41.506;24.938;2023-01-29T08:54:32;93661.94;;;3.91;88.01
8294;BME280;4185;41.506;24.938;2023-01-29T08:57:14;93672.19;;;4.05;87.88
8294;BME280;4185;41.506;24.938;2023-01-29T08:59:43;93667.28;;;4.13;85.96
8294;BME280;4185;41.506;24.938;2023-01-29T09:02:19;93665.66;;;4.15;86.34
8294;BME280;4185;41.506;24.938;2023-01-29T09:04:46;93663.09;;;4.12;84.34
8294;BME280;4185;41.506;24.938;2023-01-29T09:07:19;93667.47;;;4.18;85.45
8294;BME280;4185;41.506;24.938;2023-01-29T09:09:50;93662.28;;;4.24;85.39
8294;BME280;4185;41.506;24.938;2023-01-29T09:12:18;93661.13;;;4.34;84.34
8294;BME280;4185;41.506;24.938;2023-01-29T09:14:50;93657.69;;;4.33;82.98
8294;BME280;4185;41.506;24.938;2023-01-29T09:17:37;93648.97;;;4.20;82.74
8294;BME280;4185;41.506;24.938;2023-01-29T09:20:32;93655.63;;;4.37;82.49
8294;BME280;4185;41.506;24.938;2023-01-29T09:23:04;93644.78;;;4.50;82.58
8294;BME280;4185;41.506;24.938;2023-01-29T09:25:54;93637.44;;;4.50;82.15
8294;BME280;4185;41.506;24.938;2023-01-29T09:28:26;93656.34;;;4.77;81.21
8294;BME280;4185;41.506;24.938;2023-01-29T09:30:54;93650.44;;;5.01;79.78
8294;BME280;4185;41.506;24.938;2023-01-29T09:33:32;93644.50;;;5.33;77.78
8294;BME280;4185;41.506;24.938;2023-01-29T09:36:19;93638.97;;;5.54;76.80
8294;BME280;4185;41.506;24.938;2023-01-29T09:39:02;93640.28;;;5.77;74.83
8294;BME280;4185;41.506;24.938;2023-01-29T09:41:45;93632.53;;;5.61;74.56
8294;BME280;4185;41.506;24.938;2023-01-29T09:44:20;93637.00;;;5.28;76.56
8294;BME280;4185;41.506;24.938;2023-01-29T09:46:53;93636.34;;;4.87;76.77
8294;BME280;4185;41.506;24.938;2023-01-29T09:49:29;93625.25;;;4.67;76.57
8294;BME280;4185;41.506;24.938;2023-01-29T09:52:09;93637.16;;;4.57;74.84
8294;BME280;4185;41.506;24.938;2023-01-29T09:54:51;93632.72;;;4.72;74.46
8294;BME280;4185;41.506;24.938;2023-01-29T09:57:44;93632.78;;;4.99;75.46
8294;BME280;4185;41.506;24.938;2023-01-29T10:00:19;93623.41;;;5.22;74.06
8294;BME280;4185;41.506;24.938;2023-01-29T10:03:01;93625.47;;;5.36;73.24
8294;BME280;4185;41.506;24.938;2023-01-29T10:12:03;93612.75;;;5.73;75.01
8294;BME280;4185;41.506;24.938;2023-01-29T10:14:41;93614.13;;;6.37;71.23
8294;BME280;4185;41.506;24.938;2023-01-29T10:17:37;93612.22;;;6.19;70.63
8294;BME280;4185;41.506;24.938;2023-01-29T10:23:21;93610.66;;;5.59;71.49
8294;BME280;4185;41.506;24.938;2023-01-29T10:25:54;93605.72;;;5.48;72.34
8294;BME280;4185;41.506;24.938;2023-01-29T10:31:44;93603.19;;;5.63;73.11
8294;BME280;4185;41.506;24.938;2023-01-29T10:34:23;93590.91;;;5.62;72.57
8294;BME280;4185;41.506;24.938;2023-01-29T10:36:56;93601.69;;;5.71;71.52
8294;BME280;4185;41.506;24.938;2023-01-29T10:39:31;93596.28;;;5.71;72.51
8294;BME280;4185;41.506;24.938;2023-01-29T10:42:15;93592.84;;;5.70;71.95
8294;BME280;4185;41.506;24.938;2023-01-29T10:45:04;93591.22;;;5.55;71.67
8294;BME280;4185;41.506;24.938;2023-01-29T10:48:29;93588.84;;;5.39;72.37
8294;BME280;4185;41.506;24.938;2023-01-29T10:51:13;93580.75;;;5.39;72.37
8294;BME280;4185;41.506;24.938;2023-01-29T10:54:01;93586.75;;;5.43;72.22
8294;BME280;4185;41.506;24.938;2023-01-29T10:59:55;93589.91;;;5.14;73.58
8294;BME280;4185;41.506;24.938;2023-01-29T11:02:31;93588.53;;;5.10;74.26
8294;BME280;4185;41.506;24.938;2023-01-29T11:05:19;93578.97;;;5.09;74.26
8294;BME280;4185;41.506;24.938;2023-01-29T11:08:00;93581.38;;;5.16;74.09
8294;BME280;4185;41.506;24.938;2023-01-29T11:10:49;93575.19;;;5.69;72.62
8294;BME280;4185;41.506;24.938;2023-01-29T11:13:28;93565.44;;;5.90;70.35
8294;BME280;4185;41.506;24.938;2023-01-29T11:16:05;93563.47;;;5.90;72.56
8294;BME280;4185;41.506;24.938;2023-01-29T11:19:04;93567.53;;;5.95;72.71
8294;BME280;4185;41.506;24.938;2023-01-29T11:21:54;93563.94;;;5.89;71.46
8294;BME280;4185;41.506;24.938;2023-01-29T11:24:35;93565.09;;;6.06;70.79
8294;BME280;4185;41.506;24.938;2023-01-29T11:27:25;93559.59;;;5.91;70.34
8294;BME280;4185;41.506;24.938;2023-01-29T11:30:00;93551.81;;;5.93;70.26
8294;BME280;4185;41.506;24.938;2023-01-29T11:32:40;93551.09;;;5.66;70.69
8294;BME280;4185;41.506;24.938;2023-01-29T11:35:24;93549.91;;;5.49;72.22
8294;BME280;4185;41.506;24.938;2023-01-29T11:38:14;93542.91;;;5.33;74.05
8294;BME280;4185;41.506;24.938;2023-01-29T11:40:46;93539.63;;;5.20;73.19
8294;BME280;4185;41.506;24.938;2023-01-29T11:43:22;93541.72;;;5.16;73.58
8294;BME280;4185;41.506;24.938;2023-01-29T11:46:03;93543.81;;;5.12;74.01
8294;BME280;4185;41.506;24.938;2023-01-29T11:48:42;93537.81;;;4.99;74.19
8294;BME280;4185;41.506;24.938;2023-01-29T11:51:20;93536.94;;;4.93;73.95
8294;BME280;4185;41.506;24.938;2023-01-29T11:53:55;93527.06;;;4.90;73.23
8294;BME280;4185;41.506;24.938;2023-01-29T11:56:44;93539.78;;;4.98;73.69
8294;BME280;4185;41.506;24.938;2023-01-29T11:59:36;93533.50;;;5.02;73.09
8294;BME280;4185;41.506;24.938;2023-01-29T12:02:24;93537.69;;;5.12;73.23
8294;BME280;4185;41.506;24.938;2023-01-29T12:04:59;93533.22;;;5.09;72.82
8294;BME280;4185;41.506;24.938;2023-01-29T12:07:34;93534.09;;;5.06;72.72
8294;BME280;4185;41.506;24.938;2023-01-29T12:10:35;93532.00;;;4.91;73.55
8294;BME280;4185;41.506;24.938;2023-01-29T12:13:14;93543.66;;;4.88;73.50
8294;BME280;4185;41.506;24.938;2023-01-29T12:15:47;93538.28;;;4.79;73.63
8294;BME280;4185;41.506;24.938;2023-01-29T12:18:27;93535.56;;;4.70;73.21
8294;BME280;4185;41.506;24.938;2023-01-29T12:21:14;93544.22;;;4.65;73.72
8294;BME280;4185;41.506;24.938;2023-01-29T12:24:02;93530.19;;;4.61;74.01
8294;BME280;4185;41.506;24.938;2023-01-29T12:26:49;93540.50;;;4.63;74.10
8294;BME280;4185;41.506;24.938;2023-01-29T12:29:29;93539.44;;;4.51;74.53
8294;BME280;4185;41.506;24.938;2023-01-29T12:32:06;93540.16;;;4.43;75.09
8294;BME280;4185;41.506;24.938;2023-01-29T12:34:48;93542.38;;;4.35;75.24
8294;BME280;4185;41.506;24.938;2023-01-29T12:37:26;93526.25;;;4.35;76.01
8294;BME280;4185;41.506;24.938;2023-01-29T12:40:00;93540.91;;;4.43;76.13
8294;BME280;4185;41.506;24.938;2023-01-29T12:42:52;93541.81;;;4.49;74.95
8294;BME280;4185;41.506;24.938;2023-01-29T12:45:26;93546.00;;;4.41;75.32
8294;BME280;4185;41.506;24.938;2023-01-29T12:48:03;93541.47;;;4.38;74.77
8294;BME280;4185;41.506;24.938;2023-01-29T12:50:47;93545.41;;;4.55;75.99
8294;BME280;4185;41.506;24.938;2023-01-29T12:53:24;93536.75;;;4.60;74.69
8294;BME280;4185;41.506;24.938;2023-01-29T12:56:02;93536.44;;;4.58;72.78
8294;BME280;4185;41.506;24.938;2023-01-29T12:58:38;93526.88;;;4.57;73.97
8294;BME280;4185;41.506;24.938;2023-01-29T13:01:33;93536.78;;;4.69;73.94
8294;BME280;4185;41.506;24.938;2023-01-29T13:04:20;93532.00;;;4.82;72.72
8294;BME280;4185;41.506;24.938;2023-01-29T13:07:12;93538.28;;;4.79;73.05
8294;BME280;4185;41.506;24.938;2023-01-29T13:10:06;93538.56;;;4.72;73.66
8294;BME280;4185;41.506;24.938;2023-01-29T13:12:38;93533.63;;;4.53;72.75
8294;BME280;4185;41.506;24.938;2023-01-29T13:15:20;93535.06;;;4.36;73.20
8294;BME280;4185;41.506;24.938;2023-01-29T13:18:19;93538.34;;;4.40;73.81
8294;BME280;4185;41.506;24.938;2023-01-29T13:20:51;93528.63;;;4.33;74.03
8294;BME280;4185;41.506;24.938;2023-01-29T13:27:11;93532.78;;;4.25;73.15
8294;BME280;4185;41.506;24.938;2023-01-29T13:29:43;93528.63;;;4.33;74.88
8294;BME280;4185;41.506;24.938;2023-01-29T13:32:10;93539.38;;;4.33;74.17
8294;BME280;4185;41.506;24.938;2023-01-29T13:34:43;93535.03;;;4.27;74.65
8294;BME280;4185;41.506;24.938;2023-01-29T13:37:16;93528.63;;;4.33;76.25
8294;BME280;4185;41.506;24.938;2023-01-29T13:39:46;93544.63;;;4.28;75.31
8294;BME280;4185;41.506;24.938;2023-01-29T13:42:18;93538.50;;;4.36;74.39
8294;BME280;4185;41.506;24.938;2023-01-29T13:44:47;93537.31;;;4.37;74.32
8294;BME280;4185;41.506;24.938;2023-01-29T13:47:22;93536.09;;;4.38;73.27
8294;BME280;4185;41.506;24.938;2023-01-29T13:49:53;93537.31;;;4.37;74.39
8294;BME280;4185;41.506;24.938;2023-01-29T13:52:31;93542.81;;;4.34;74.03
8294;BME280;4185;41.506;24.938;2023-01-29T13:55:02;93538.03;;;4.29;74.46
8294;BME280;4185;41.506;24.938;2023-01-29T13:57:51;93543.41;;;4.29;74.20
8294;BME280;4185;41.506;24.938;2023-01-29T14:03:51;93540.09;;;4.25;73.53
8294;BME280;4185;41.506;24.938;2023-01-29T14:06:38;93543.38;;;4.20;74.49
8294;BME280;4185;41.506;24.938;2023-01-29T14:09:34;93540.94;;;4.13;74.71
8294;BME280;4185;41.506;24.938;2023-01-29T14:12:39;93552.72;;;4.06;75.05
8294;BME280;4185;41.506;24.938;2023-01-29T14:15:28;93555.59;;;4.12;74.46
8294;BME280;4185;41.506;24.938;2023-01-29T14:18:14;93559.88;;;4.00;74.64